Time;durP1;ratioP1;P1;durP2;ratioP2;P2;SDS_P1;SDS_P2;PMS_P1;PMS_P2;Temp;Humidity;BMP_temperature;BMP_pressure;BME280_temperature;BME280_humidity;BME280_pressure;Samples;Min_cycle;Max_cycle;Signal;HPM_P1;HPM_P2
2023/12/31 00:01:01;;;;;;;1.10;0.52;;;;;;;17.35;47.46;100275.84;5049309;28;20361;-61
2023/12/31 00:03:27;;;;;;;2.72;0.60;;;;;;;17.32;47.39;100259.13;5062424;28;20529;-60
2023/12/31 00:05:52;;;;;;;2.15;1.38;;;;;;;17.33;46.97;100255.41;5048990;28;20472;-61
2023/12/31 00:08:18;;;;;;;1.33;0.93;;;;;;;17.36;46.75;100245.00;5063549;28;20021;-60
2023/12/31 00:10:44;;;;;;;1.85;1.00;;;;;;;17.36;47.11;100245.00;5064832;28;20039;-61
2023/12/31 00:13:09;;;;;;;2.28;0.98;;;;;;;17.37;47.38;100241.28;5046482;28;20016;-61
2023/12/31 00:15:35;;;;;;;4.07;1.35;;;;;;;17.37;47.33;100235.03;5065467;28;20021;-60
2023/12/31 00:18:00;;;;;;;2.25;1.08;;;;;;;17.35;46.43;100237.09;5071146;28;20059;-60
2023/12/31 00:20:26;;;;;;;1.33;0.70;;;;;;;17.33;46.48;100233.75;5075314;28;20029;-60
2023/12/31 00:22:51;;;;;;;2.80;0.73;;;;;;;17.33;46.44;100234.59;5074952;28;20388;-60
2023/12/31 00:25:17;;;;;;;2.20;1.10;;;;;;;17.36;46.56;100230.66;5074067;28;20073;-60
2023/12/31 00:27:42;;;;;;;1.45;0.93;;;;;;;17.40;47.12;100223.81;5074859;28;20020;-60
2023/12/31 00:30:08;;;;;;;0.57;0.40;;;;;;;17.38;46.69;100225.88;5074196;28;20506;-61
2023/12/31 00:32:34;;;;;;;1.10;0.95;;;;;;;17.36;46.93;100217.13;5057236;28;20476;-61
2023/12/31 00:34:59;;;;;;;1.83;0.70;;;;;;;17.33;46.76;100201.25;5075103;28;20031;-61
2023/12/31 00:37:24;;;;;;;1.90;0.93;;;;;;;17.30;46.50;100190.78;5073713;28;20119;-61
2023/12/31 00:39:50;;;;;;;2.25;0.80;;;;;;;17.28;46.68;100177.44;5074867;28;20154;-61
2023/12/31 00:42:16;;;;;;;1.30;0.60;;;;;;;17.29;46.02;100159.34;5073274;28;20472;-61
2023/12/31 00:44:41;;;;;;;1.10;0.68;;;;;;;17.25;46.83;100160.75;5057579;28;20033;-61
2023/12/31 00:47:07;;;;;;;0.25;0.25;;;;;;;17.26;47.02;100154.28;5075628;28;20421;-60
2023/12/31 00:49:32;;;;;;;2.08;0.80;;;;;;;17.26;46.50;100148.88;5075420;28;20024;-61
2023/12/31 00:51:58;;;;;;;0.30;0.30;;;;;;;17.25;46.11;100144.50;5056828;28;20040;-60
2023/12/31 00:54:23;;;;;;;3.95;0.60;;;;;;;17.22;46.33;100142.19;5073322;28;20082;-61
2023/12/31 00:56:49;;;;;;;1.02;0.40;;;;;;;17.21;45.72;100132.38;5073484;28;20111;-60
2023/12/31 00:59:14;;;;;;;0.80;0.60;;;;;;;17.19;46.28;100139.84;5074757;28;20107;-61
2023/12/31 01:01:39;;;;;;;2.67;0.45;;;;;;;17.16;45.99;100129.41;5074686;28;20117;-60
2023/12/31 01:04:05;;;;;;;0.63;0.40;;;;;;;17.18;46.00;100127.31;5072834;28;20032;-60
2023/12/31 01:06:31;;;;;;;2.92;0.40;;;;;;;17.13;45.86;100127.06;5074494;28;20028;-61
2023/12/31 01:08:59;;;;;;;0.80;0.60;;;;;;;17.11;45.79;100121.00;5074917;28;20476;-60
2023/12/31 01:11:25;;;;;;;2.03;0.50;;;;;;;17.07;45.32;100108.88;5075013;28;20132;-61
2023/12/31 01:13:50;;;;;;;1.52;0.28;;;;;;;17.02;45.69;100104.03;5056730;28;20108;-61
2023/12/31 01:16:16;;;;;;;0.50;0.40;;;;;;;17.02;45.43;100100.47;5074296;28;20086;-60
2023/12/31 01:18:42;;;;;;;1.45;0.75;;;;;;;17.02;46.37;100100.47;5074391;28;20452;-61
2023/12/31 01:21:07;;;;;;;0.88;0.30;;;;;;;17.01;45.86;100093.38;5071928;28;20036;-60
2023/12/31 01:23:33;;;;;;;0.25;0.25;;;;;;;16.96;45.65;100085.84;5073077;28;20029;-61
2023/12/31 01:25:58;;;;;;;1.92;1.02;;;;;;;16.98;45.58;100080.22;5074270;28;20471;-61
2023/12/31 01:28:24;;;;;;;3.85;0.40;;;;;;;16.98;45.51;100078.38;5073399;28;20037;-61
2023/12/31 01:30:49;;;;;;;2.65;0.35;;;;;;;16.96;45.74;100075.03;5073553;28;20409;-60
2023/12/31 01:33:14;;;;;;;3.72;0.28;;;;;;;16.94;45.77;100065.41;5075352;28;20063;-61
2023/12/31 01:35:40;;;;;;;1.52;0.30;;;;;;;16.94;45.29;100063.56;5075543;28;20024;-61
2023/12/31 01:38:05;;;;;;;0.75;0.40;;;;;;;16.92;45.41;100064.78;5074287;28;20062;-61
2023/12/31 01:40:30;;;;;;;0.30;0.30;;;;;;;16.93;45.65;100069.13;5074080;28;20538;-60
2023/12/31 01:42:56;;;;;;;1.33;0.20;;;;;;;16.91;46.13;100052.25;5073657;28;20028;-60
2023/12/31 01:45:21;;;;;;;0.63;0.15;;;;;;;16.91;45.30;100046.84;5072606;28;20028;-60
2023/12/31 01:47:46;;;;;;;0.63;0.30;;;;;;;16.87;44.93;100035.56;5073037;28;20105;-60
2023/12/31 01:50:13;;;;;;;0.30;0.30;;;;;;;16.88;45.63;100040.81;5072953;28;20052;-61
2023/12/31 01:52:39;;;;;;;0.68;0.40;;;;;;;16.85;45.27;100038.47;5072423;28;20036;-60
2023/12/31 01:55:05;;;;;;;0.93;0.38;;;;;;;16.87;45.91;100032.84;5072439;28;20020;-60
2023/12/31 01:57:33;;;;;;;0.88;0.50;;;;;;;16.86;45.47;100036.59;5073383;28;20048;-61
2023/12/31 01:59:59;;;;;;;0.25;0.25;;;;;;;16.88;44.71;100046.22;5072749;28;20392;-60
2023/12/31 02:02:25;;;;;;;1.55;0.32;;;;;;;16.87;45.30;100039.09;5073833;28;20547;-61
2023/12/31 02:04:51;;;;;;;0.38;0.35;;;;;;;16.86;45.60;100026.59;5072339;28;20163;-61
2023/12/31 02:07:17;;;;;;;0.52;0.50;;;;;;;16.89;45.27;100028.09;5072564;28;20037;-61
2023/12/31 02:09:42;;;;;;;0.30;0.30;;;;;;;16.87;44.95;100027.44;5055697;28;20039;-60
2023/12/31 02:12:08;;;;;;;0.98;0.50;;;;;;;16.89;44.96;100028.09;5072559;28;20103;-61
2023/12/31 02:14:33;;;;;;;0.43;0.43;;;;;;;16.91;44.59;100017.94;5073648;28;20032;-60
2023/12/31 02:16:59;;;;;;;0.82;0.50;;;;;;;16.89;44.32;100004.59;5073473;28;20436;-61
2023/12/31 02:19:25;;;;;;;0.65;0.60;;;;;;;16.91;45.30;100006.28;5073292;28;20032;-60
2023/12/31 02:21:51;;;;;;;1.20;0.43;;;;;;;16.89;45.56;100004.59;5072558;28;20553;-60
2023/12/31 02:24:19;;;;;;;0.80;0.40;;;;;;;16.91;44.97;100000.88;5055803;28;20040;-61
2023/12/31 02:26:44;;;;;;;1.90;0.60;;;;;;;16.89;44.79;99996.47;5072181;28;20085;-61
2023/12/31 02:29:10;;;;;;;0.55;0.30;;;;;;;16.87;44.93;99995.81;5073416;28;20426;-60
2023/12/31 02:31:35;;;;;;;0.60;0.30;;;;;;;16.83;44.99;99983.69;5071886;28;20043;-61
2023/12/31 02:34:01;;;;;;;0.25;0.20;;;;;;;16.83;45.24;99977.47;5071897;28;20032;-60
2023/12/31 02:36:26;;;;;;;0.80;0.45;;;;;;;16.81;45.70;99969.53;5071880;28;20028;-60
2023/12/31 02:38:51;;;;;;;1.23;0.68;;;;;;;16.81;46.13;99964.13;5071853;28;20085;-61
2023/12/31 02:41:17;;;;;;;1.55;0.40;;;;;;;16.79;45.86;99960.78;5055606;28;20093;-61
2023/12/31 02:43:42;;;;;;;2.40;1.33;;;;;;;16.78;45.50;99953.69;5072478;28;20408;-61
2023/12/31 02:46:08;;;;;;;0.50;0.50;;;;;;;16.80;46.05;99942.69;5071754;28;20052;-60
2023/12/31 02:48:33;;;;;;;0.52;0.50;;;;;;;16.81;45.08;99930.81;5072801;28;20074;-61
2023/12/31 02:50:59;;;;;;;1.45;0.68;;;;;;;16.82;45.08;99933.34;5071416;28;20039;-60
2023/12/31 02:53:24;;;;;;;2.80;0.35;;;;;;;16.83;44.79;99935.00;5071702;28;20028;-60
2023/12/31 02:55:49;;;;;;;0.45;0.40;;;;;;;16.83;44.90;99913.38;5072967;28;20040;-60
2023/12/31 02:58:15;;;;;;;2.70;0.57;;;;;;;16.86;45.21;99910.28;5073083;28;20511;-60
2023/12/31 03:00:41;;;;;;;0.38;0.38;;;;;;;16.86;45.59;99894.06;5071337;28;20564;-60
2023/12/31 03:03:07;;;;;;;0.40;0.40;;;;;;;16.87;45.70;99887.63;5071439;28;20024;-60
2023/12/31 03:05:32;;;;;;;1.17;0.77;;;;;;;16.88;45.18;99892.00;5071217;28;20568;-61
2023/12/31 03:07:57;;;;;;;0.40;0.40;;;;;;;16.86;45.00;99885.94;5072387;28;20056;-60
2023/12/31 03:10:23;;;;;;;1.35;0.80;;;;;;;16.85;45.96;99884.28;5071287;28;20029;-61
2023/12/31 03:12:48;;;;;;;0.90;0.63;;;;;;;16.83;45.93;99871.97;5071334;28;20112;-61
2023/12/31 03:15:14;;;;;;;1.30;0.63;;;;;;;16.84;45.53;99866.38;5054580;28;20024;-60
2023/12/31 03:17:39;;;;;;;0.82;0.68;;;;;;;16.82;45.44;99867.59;5071401;28;20040;-60
2023/12/31 03:20:05;;;;;;;0.98;0.52;;;;;;;16.81;46.01;99858.63;5071324;28;20040;-61
2023/12/31 03:22:30;;;;;;;1.20;0.65;;;;;;;16.78;46.02;99859.00;5071124;28;20040;-61
2023/12/31 03:24:56;;;;;;;0.70;0.70;;;;;;;16.78;46.00;99840.09;5054398;28;20052;-60
2023/12/31 03:27:21;;;;;;;3.45;0.60;;;;;;;16.75;45.97;99839.66;5054582;28;20037;-60
2023/12/31 03:29:47;;;;;;;1.35;0.45;;;;;;;16.75;45.70;99832.34;5072518;28;20032;-61
2023/12/31 03:32:12;;;;;;;1.17;0.63;;;;;;;16.76;44.81;99825.09;5071144;28;20028;-60
2023/12/31 03:34:38;;;;;;;2.92;1.13;;;;;;;16.78;45.91;99823.00;5072783;28;20048;-60
2023/12/31 03:37:04;;;;;;;1.23;0.80;;;;;;;16.79;45.27;99814.72;5072949;28;20496;-61
2023/12/31 03:39:29;;;;;;;1.35;0.55;;;;;;;16.78;46.07;99807.63;5072724;28;20033;-60
2023/12/31 03:41:55;;;;;;;1.02;0.60;;;;;;;16.79;45.09;99798.50;5053945;28;20407;-60
2023/12/31 03:44:20;;;;;;;3.13;1.05;;;;;;;16.78;45.25;99791.41;5072577;28;20029;-60
2023/12/31 03:46:46;;;;;;;0.82;0.70;;;;;;;16.79;46.06;99793.09;5072228;28;20109;-61
2023/12/31 03:49:11;;;;;;;1.73;0.85;;;;;;;16.83;45.72;99793.53;5071029;28;20032;-60
2023/12/31 03:51:37;;;;;;;0.65;0.50;;;;;;;16.82;45.66;99772.91;5072202;28;20037;-60
2023/12/31 03:54:02;;;;;;;0.68;0.65;;;;;;;16.83;45.73;99772.72;5072253;28;20025;-60
2023/12/31 03:56:28;;;;;;;0.60;0.50;;;;;;;16.80;45.86;99773.13;5071022;28;20449;-61
2023/12/31 03:58:53;;;;;;;1.10;0.90;;;;;;;16.81;45.87;99757.72;5072188;28;20407;-61
2023/12/31 04:01:18;;;;;;;2.50;0.90;;;;;;;16.82;45.29;99760.25;5071315;28;20031;-61
2023/12/31 04:03:44;;;;;;;3.53;0.65;;;;;;;16.80;45.64;99750.66;5057561;28;20157;-60
2023/12/31 04:06:10;;;;;;;0.73;0.63;;;;;;;16.80;45.62;99745.25;5075745;28;20424;-61
2023/12/31 04:08:35;;;;;;;2.13;1.10;;;;;;;16.77;46.25;99749.19;5074416;28;20040;-61
2023/12/31 04:11:01;;;;;;;3.83;1.27;;;;;;;16.78;45.59;99747.28;5057519;28;20033;-61
2023/12/31 04:13:27;;;;;;;1.30;1.15;;;;;;;16.77;46.79;99740.22;5075349;28;20037;-61
2023/12/31 04:15:53;;;;;;;0.80;0.80;;;;;;;16.78;45.67;99741.88;5074924;28;20082;-61
2023/12/31 04:18:18;;;;;;;1.05;0.80;;;;;;;16.78;46.35;99725.66;5074135;28;20123;-61
2023/12/31 04:20:43;;;;;;;1.77;1.17;;;;;;;16.78;46.43;99731.91;5075578;28;20036;-61
2023/12/31 04:23:09;;;;;;;2.47;0.85;;;;;;;16.82;46.39;99721.53;5075434;28;20511;-60
2023/12/31 04:25:34;;;;;;;1.35;0.90;;;;;;;16.82;45.24;99719.66;5057177;28;20029;-60
2023/12/31 04:27:59;;;;;;;1.52;1.00;;;;;;;16.82;46.33;99706.16;5074185;28;20078;-61
2023/12/31 04:30:25;;;;;;;2.65;1.00;;;;;;;16.84;46.50;99709.47;5057222;28;20089;-61
2023/12/31 04:32:51;;;;;;;1.88;1.10;;;;;;;16.85;45.80;99694.09;5074299;28;20127;-61
2023/12/31 04:35:16;;;;;;;2.22;0.80;;;;;;;16.86;45.67;99695.78;5074045;28;20111;-61
2023/12/31 04:37:42;;;;;;;1.90;1.10;;;;;;;16.88;45.93;99688.28;5074243;28;20048;-61
2023/12/31 04:40:07;;;;;;;2.13;1.15;;;;;;;16.88;45.77;99682.88;5073998;28;20500;-60
2023/12/31 04:42:33;;;;;;;3.50;0.98;;;;;;;16.92;46.65;99669.81;5075182;28;20089;-60
2023/12/31 04:45:04;;;;;;;3.60;1.08;;;;;;;16.95;46.12;99669.38;5075133;28;20036;-60
2023/12/31 04:47:29;;;;;;;2.53;0.90;;;;;;;16.94;45.91;99660.44;5073793;28;20036;-61
2023/12/31 04:49:54;;;;;;;1.25;0.77;;;;;;;16.94;45.49;99644.22;5073703;28;20025;-61
2023/12/31 04:52:20;;;;;;;0.60;0.60;;;;;;;16.96;46.58;99650.25;5074926;28;20086;-61
2023/12/31 04:54:45;;;;;;;1.02;0.80;;;;;;;16.92;45.57;99629.22;5074485;28;20035;-60
2023/12/31 04:57:11;;;;;;;1.38;1.05;;;;;;;16.96;45.68;99641.31;5073327;28;20435;-61
2023/12/31 04:59:36;;;;;;;1.70;1.23;;;;;;;16.95;45.91;99639.63;5074578;28;20036;-61
2023/12/31 05:02:02;;;;;;;1.50;1.17;;;;;;;16.91;45.27;99632.94;5073570;28;20491;-61
2023/12/31 05:04:27;;;;;;;1.08;0.90;;;;;;;16.92;45.85;99623.81;5074412;28;20534;-60
2023/12/31 05:06:53;;;;;;;1.98;0.90;;;;;;;16.91;45.63;99622.13;5073519;28;20032;-60
2023/12/31 05:09:18;;;;;;;1.63;1.00;;;;;;;16.92;46.07;99623.81;5074722;28;20025;-61
2023/12/31 05:11:44;;;;;;;1.23;0.82;;;;;;;16.93;46.03;99625.47;5056522;28;20028;-60
2023/12/31 05:14:10;;;;;;;1.05;0.82;;;;;;;16.92;46.25;99604.88;5055578;28;20029;-61
2023/12/31 05:16:36;;;;;;;2.58;1.05;;;;;;;16.95;45.90;99608.00;5074409;28;20376;-61
2023/12/31 05:19:01;;;;;;;1.75;0.80;;;;;;;16.96;45.71;99603.41;5056457;28;20035;-60
2023/12/31 05:21:27;;;;;;;2.35;1.63;;;;;;;16.95;45.46;99590.91;5074382;28;20380;-61
2023/12/31 05:23:52;;;;;;;1.45;1.10;;;;;;;17.01;46.06;99590.13;5072957;28;20492;-61
2023/12/31 05:26:18;;;;;;;1.02;0.95;;;;;;;17.05;46.40;99586.00;5056176;28;20500;-61
2023/12/31 05:28:44;;;;;;;1.83;1.52;;;;;;;17.07;46.22;99584.75;5072486;28;20499;-60
2023/12/31 05:31:10;;;;;;;2.25;1.15;;;;;;;17.04;45.27;99570.78;5072741;28;20047;-61
2023/12/31 05:33:36;;;;;;;1.70;1.10;;;;;;;17.07;45.35;99575.78;5056403;28;20400;-60
2023/12/31 05:36:01;;;;;;;2.17;1.25;;;;;;;17.07;45.58;99562.28;5072812;28;20111;-61
2023/12/31 05:38:27;;;;;;;3.03;1.10;;;;;;;17.10;45.95;99561.88;5072500;28;20032;-60
2023/12/31 05:40:52;;;;;;;2.50;0.80;;;;;;;17.14;46.02;99552.31;5072813;28;20028;-61
2023/12/31 05:43:17;;;;;;;1.80;1.20;;;;;;;17.14;45.39;99546.91;5072632;28;20114;-60
2023/12/31 05:45:43;;;;;;;1.77;0.90;;;;;;;17.17;45.37;99535.69;5072440;28;20037;-60
2023/12/31 05:48:08;;;;;;;2.65;1.08;;;;;;;17.16;45.69;99539.41;5072352;28;20046;-61
2023/12/31 05:50:34;;;;;;;2.08;1.05;;;;;;;17.16;46.30;99544.81;5072468;28;20036;-60
2023/12/31 05:52:59;;;;;;;0.85;0.80;;;;;;;17.16;45.56;99534.00;5054624;28;20466;-60
2023/12/31 05:55:25;;;;;;;1.40;1.00;;;;;;;17.20;45.25;99543.38;5055721;28;20055;-60
2023/12/31 05:57:50;;;;;;;1.65;0.75;;;;;;;17.22;45.35;99533.19;5073858;28;20400;-61
2023/12/31 06:00:16;;;;;;;2.28;1.60;;;;;;;17.25;45.57;99541.72;5072383;28;20491;-60
2023/12/31 06:02:41;;;;;;;2.03;1.17;;;;;;;17.25;46.04;99541.72;5072942;28;20104;-62
2023/12/31 06:05:07;;;;;;;1.98;1.50;;;;;;;17.29;45.97;99518.63;5074773;28;20124;-61
2023/12/31 06:07:33;;;;;;;1.67;1.02;;;;;;;17.29;46.08;99515.09;5074302;28;20032;-60
2023/12/31 06:09:58;;;;;;;2.13;0.82;;;;;;;17.31;46.35;99518.41;5073024;28;20029;-61
2023/12/31 06:12:24;;;;;;;1.70;0.98;;;;;;;17.32;45.41;99533.63;5055251;28;20032;-61
2023/12/31 06:14:49;;;;;;;3.55;1.15;;;;;;;17.32;46.60;99520.09;5055272;28;20036;-60
2023/12/31 06:17:14;;;;;;;1.38;1.02;;;;;;;17.33;45.28;99514.50;5072072;28;20049;-61
2023/12/31 06:19:40;;;;;;;1.13;0.90;;;;;;;17.35;46.08;99516.97;5072067;28;20036;-61
2023/12/31 06:22:06;;;;;;;1.17;1.00;;;;;;;17.35;45.44;99495.31;5073657;28;20488;-60
2023/12/31 06:24:31;;;;;;;2.15;0.80;;;;;;;17.40;46.08;99506.38;5073474;28;20090;-61
2023/12/31 06:26:57;;;;;;;1.67;0.93;;;;;;;17.42;46.08;99517.81;5072272;28;20526;-61
2023/12/31 06:29:22;;;;;;;2.08;1.08;;;;;;;17.44;45.97;99502.22;5073382;28;20036;-61
2023/12/31 06:31:47;;;;;;;1.27;1.10;;;;;;;17.46;45.73;99508.25;5073105;28;20112;-61
2023/12/31 06:34:13;;;;;;;2.22;1.08;;;;;;;17.42;45.39;99502.41;5071773;28;20420;-60
2023/12/31 06:36:38;;;;;;;1.48;1.08;;;;;;;17.45;45.85;99495.75;5071667;28;20119;-60
2023/12/31 06:39:04;;;;;;;3.55;1.42;;;;;;;17.45;45.71;99501.16;5073198;28;20029;-60
2023/12/31 06:41:29;;;;;;;3.65;1.27;;;;;;;17.45;45.91;99493.88;5072898;28;20021;-60
2023/12/31 06:43:55;;;;;;;2.20;1.10;;;;;;;17.44;46.06;99491.38;5071846;28;20036;-60
2023/12/31 06:46:20;;;;;;;1.70;0.90;;;;;;;17.43;46.24;99482.44;5071878;28;20024;-60
2023/12/31 06:48:45;;;;;;;3.03;1.10;;;;;;;17.48;46.03;99484.50;5054946;28;20450;-60
2023/12/31 06:51:10;;;;;;;1.95;1.10;;;;;;;17.43;45.86;99474.31;5071307;28;20055;-60
2023/12/31 06:53:36;;;;;;;2.28;0.93;;;;;;;17.44;46.07;99464.31;5072629;28;20048;-60
2023/12/31 06:56:05;;;;;;;3.75;1.02;;;;;;;17.49;45.61;99459.09;5072836;28;20044;-61
2023/12/31 06:58:30;;;;;;;1.30;1.20;;;;;;;17.51;45.53;99456.19;5071537;28;20063;-60
2023/12/31 07:00:56;;;;;;;2.15;1.13;;;;;;;17.51;46.19;99446.19;5071434;28;20060;-60
2023/12/31 07:03:22;;;;;;;2.05;1.08;;;;;;;17.52;45.51;99441.63;5072393;28;20430;-60
2023/12/31 07:05:48;;;;;;;2.58;1.85;;;;;;;17.54;45.43;99440.41;5072527;28;20051;-61
2023/12/31 07:08:14;;;;;;;2.63;1.30;;;;;;;17.58;45.74;99430.00;5071279;28;20050;-60
2023/12/31 07:10:39;;;;;;;2.08;1.35;;;;;;;17.58;45.68;99430.00;5054582;28;20090;-60
2023/12/31 07:13:05;;;;;;;2.38;1.40;;;;;;;17.58;45.84;99430.81;5072703;28;20039;-60
2023/12/31 07:15:30;;;;;;;2.30;1.38;;;;;;;17.57;45.67;99425.59;5071478;28;20029;-61
2023/12/31 07:17:56;;;;;;;1.90;1.10;;;;;;;17.53;45.89;99408.94;5072634;28;20036;-61
2023/12/31 07:20:21;;;;;;;2.47;1.40;;;;;;;17.53;45.86;99417.06;5054533;28;20036;-63
2023/12/31 07:22:47;;;;;;;2.83;1.20;;;;;;;17.53;45.33;99417.06;5071347;28;20037;-60
2023/12/31 07:25:12;;;;;;;2.28;1.50;;;;;;;17.53;45.68;99411.63;5072416;28;20035;-60
2023/12/31 07:27:38;;;;;;;2.05;1.50;;;;;;;17.51;46.38;99416.41;5072465;28;20562;-60
2023/12/31 07:30:04;;;;;;;3.00;1.38;;;;;;;17.52;45.64;99414.53;5071600;28;20040;-60
2023/12/31 07:32:29;;;;;;;3.00;1.55;;;;;;;17.54;45.40;99426.84;5071154;28;20045;-60
2023/12/31 07:34:54;;;;;;;3.50;1.80;;;;;;;17.54;45.45;99424.16;5054441;28;20037;-60
2023/12/31 07:37:20;;;;;;;3.22;1.65;;;;;;;17.55;45.79;99431.25;5073241;28;20054;-60
2023/12/31 07:39:45;;;;;;;1.63;1.52;;;;;;;17.55;45.55;99420.41;5074827;28;20116;-61
2023/12/31 07:42:10;;;;;;;2.80;1.70;;;;;;;17.55;45.57;99420.41;5074964;28;20399;-60
2023/12/31 07:44:36;;;;;;;3.35;1.92;;;;;;;17.56;45.74;99416.63;5058281;28;20106;-60
2023/12/31 07:47:03;;;;;;;2.15;1.77;;;;;;;17.58;45.74;99422.69;5075582;28;20040;-60
2023/12/31 07:49:30;;;;;;;3.80;1.60;;;;;;;17.57;45.71;99412.91;5075831;28;20150;-61
2023/12/31 07:51:55;;;;;;;1.75;1.60;;;;;;;17.58;45.26;99413.75;5076065;28;20058;-61
2023/12/31 07:54:21;;;;;;;1.48;1.38;;;;;;;17.58;45.57;99409.16;5076005;28;20555;-60
2023/12/31 07:56:46;;;;;;;1.75;1.60;;;;;;;17.55;45.62;99398.75;5074789;28;20036;-60
2023/12/31 07:59:11;;;;;;;2.40;1.23;;;;;;;17.57;45.98;99385.81;5074668;28;20500;-60
2023/12/31 08:01:37;;;;;;;2.60;1.58;;;;;;;17.58;45.65;99383.94;5075920;28;20028;-60
2023/12/31 08:04:03;;;;;;;1.90;1.15;;;;;;;17.59;45.17;99391.84;5073913;28;20047;-61
2023/12/31 08:06:29;;;;;;;1.52;1.20;;;;;;;17.60;45.73;99374.56;5074450;28;20029;-61
2023/12/31 08:08:54;;;;;;;1.65;1.33;;;;;;;17.62;45.37;99388.72;5074394;28;20518;-60
2023/12/31 08:11:21;;;;;;;2.90;1.38;;;;;;;17.59;45.97;99393.75;5074404;28;20035;-61
2023/12/31 08:13:48;;;;;;;1.40;1.20;;;;;;;17.61;45.69;99392.50;5075998;28;20040;-60
2023/12/31 08:16:14;;;;;;;1.80;1.40;;;;;;;17.62;45.26;99399.56;5074596;28;20028;-61
2023/12/31 08:18:39;;;;;;;3.17;1.38;;;;;;;17.68;45.66;99396.03;5057392;28;20033;-60
2023/12/31 08:21:04;;;;;;;2.17;1.23;;;;;;;17.72;45.39;99391.03;5074120;28;20035;-60
2023/12/31 08:23:30;;;;;;;1.38;1.02;;;;;;;17.75;45.77;99393.31;5074550;28;20111;-61
2023/12/31 08:25:56;;;;;;;2.30;1.23;;;;;;;17.74;45.15;99381.63;5074200;28;20112;-61
2023/12/31 08:28:22;;;;;;;1.50;1.10;;;;;;;17.79;45.56;99383.72;5074702;28;20040;-63
2023/12/31 08:30:48;;;;;;;2.50;1.52;;;;;;;17.80;45.06;99386.22;5075507;28;20028;-61
2023/12/31 08:33:13;;;;;;;1.75;1.23;;;;;;;17.81;45.86;99387.88;5073899;28;20487;-61
2023/12/31 08:35:40;;;;;;;1.17;0.95;;;;;;;17.85;45.69;99385.56;5074989;28;20479;-61
2023/12/31 08:38:05;;;;;;;1.25;0.93;;;;;;;17.82;45.44;99391.41;5075175;28;20021;-61
2023/12/31 08:40:30;;;;;;;2.95;1.52;;;;;;;17.88;44.86;99394.13;5057031;28;20027;-61
2023/12/31 08:42:57;;;;;;;2.40;1.45;;;;;;;17.93;45.27;99378.06;5074929;28;20019;-60
2023/12/31 08:45:22;;;;;;;2.53;1.30;;;;;;;18.01;45.79;99388.66;5075015;28;20020;-61
2023/12/31 08:47:48;;;;;;;8.75;1.75;;;;;;;18.07;44.99;99378.00;5073502;28;20020;-61
2023/12/31 08:50:14;;;;;;;2.47;1.42;;;;;;;18.12;45.33;99378.22;5073738;28;20023;-61
2023/12/31 08:52:44;;;;;;;2.78;1.60;;;;;;;18.14;45.31;99370.72;5074668;28;20078;-60
2023/12/31 08:55:09;;;;;;;1.40;0.93;;;;;;;18.14;45.33;99357.16;5073549;28;20020;-61
2023/12/31 08:57:35;;;;;;;2.78;0.98;;;;;;;18.13;45.45;99382.59;5073794;28;20032;-61
2023/12/31 09:00:02;;;;;;;1.52;0.90;;;;;;;18.14;45.03;99381.56;5073474;28;20024;-61
2023/12/31 09:02:27;;;;;;;2.10;1.00;;;;;;;18.18;45.25;99409.88;5074606;28;20024;-61
2023/12/31 09:04:53;;;;;;;2.88;0.82;;;;;;;18.19;45.17;99412.41;5073323;28;20131;-61
2023/12/31 09:07:18;;;;;;;1.83;0.93;;;;;;;18.17;44.85;99416.38;5056632;28;20032;-61
2023/12/31 09:09:44;;;;;;;0.85;0.57;;;;;;;18.09;45.43;99417.41;5073347;28;20076;-60
2023/12/31 09:12:09;;;;;;;1.90;0.65;;;;;;;18.07;45.25;99418.66;5073314;28;20028;-60
2023/12/31 09:14:35;;;;;;;1.02;0.60;;;;;;;17.99;44.83;99426.00;5074349;28;20031;-61
2023/12/31 09:17:00;;;;;;;1.65;0.63;;;;;;;17.96;45.32;99439.97;5073047;28;20028;-60
2023/12/31 09:19:25;;;;;;;0.75;0.55;;;;;;;17.90;45.46;99432.66;5074281;28;20059;-61
2023/12/31 09:21:51;;;;;;;1.05;0.52;;;;;;;17.85;45.21;99442.47;5056331;28;20496;-60
2023/12/31 09:24:16;;;;;;;1.00;0.35;;;;;;;17.81;45.11;99431.22;5073167;28;20408;-61
2023/12/31 09:26:42;;;;;;;1.65;0.80;;;;;;;17.84;45.47;99430.78;5074500;28;20093;-60
2023/12/31 09:29:07;;;;;;;2.00;0.70;;;;;;;17.82;44.93;99449.13;5074343;28;20033;-60
2023/12/31 09:31:34;;;;;;;2.58;0.88;;;;;;;17.80;44.87;99439.56;5055959;28;20115;-61
2023/12/31 09:33:59;;;;;;;2.60;1.05;;;;;;;17.75;45.47;99432.06;5056329;28;20024;-61
2023/12/31 09:36:25;;;;;;;2.05;0.82;;;;;;;17.74;45.04;99446.66;5074120;28;20037;-60
2023/12/31 09:38:50;;;;;;;4.32;1.23;;;;;;;17.67;44.85;99440.38;5072606;28;20492;-60
2023/12/31 09:41:24;;;;;;;1.33;0.30;;;;;;;17.63;45.42;99441.88;5073882;28;20028;-60
2023/12/31 09:43:54;;;;;;;6.32;1.33;;;;;;;17.62;45.65;99445.59;5069494;28;20082;-60
2023/12/31 09:46:21;;;;;;;4.78;1.00;;;;;;;17.61;44.84;99452.06;5073985;28;20074;-60
2023/12/31 09:48:48;;;;;;;2.42;0.95;;;;;;;17.58;45.38;99462.47;5073635;28;20036;-61
2023/12/31 09:51:14;;;;;;;2.90;1.10;;;;;;;17.50;45.10;99482.44;5055671;28;20531;-60
2023/12/31 09:53:40;;;;;;;7.05;1.58;;;;;;;17.45;44.56;99479.50;5073932;28;20120;-60
2023/12/31 09:56:06;;;;;;;6.28;0.93;;;;;;;17.36;45.58;99469.94;5072424;28;20039;-60
2023/12/31 09:58:33;;;;;;;1.05;0.22;;;;;;;17.28;44.80;99472.84;5073624;28;20041;-60
2023/12/31 10:00:58;;;;;;;0.63;0.50;;;;;;;17.28;45.00;99472.84;5055032;28;20028;-60
2023/12/31 10:03:25;;;;;;;2.33;1.20;;;;;;;17.29;45.34;99471.78;5055504;28;20504;-61
2023/12/31 10:05:51;;;;;;;2.83;0.77;;;;;;;17.28;45.75;99475.53;5072175;28;20519;-60
2023/12/31 10:08:18;;;;;;;0.40;0.30;;;;;;;17.26;45.81;99475.72;5072345;28;20040;-60
2023/12/31 10:10:43;;;;;;;0.40;0.35;;;;;;;17.24;45.62;99474.28;5055479;28;20035;-60
2023/12/31 10:13:13;;;;;;;1.05;0.43;;;;;;;17.21;45.21;99471.97;5055193;28;20120;-61
2023/12/31 10:15:39;;;;;;;1.50;0.40;;;;;;;17.20;46.08;99481.13;5072086;28;20044;-61
2023/12/31 10:18:07;;;;;;;0.30;0.30;;;;;;;17.16;45.88;99486.13;5073328;28;20037;-60
2023/12/31 10:20:32;;;;;;;0.85;0.25;;;;;;;17.15;45.32;99478.19;5072130;28;20063;-60
2023/12/31 10:22:58;;;;;;;2.30;0.60;;;;;;;17.09;45.32;99479.00;5071895;28;20076;-60
2023/12/31 10:25:24;;;;;;;2.67;0.68;;;;;;;17.08;46.13;99474.66;5073251;28;20056;-60
2023/12/31 10:27:49;;;;;;;0.52;0.20;;;;;;;17.14;45.95;99488.19;5055180;28;20036;-61
2023/12/31 10:30:15;;;;;;;3.35;0.28;;;;;;;17.12;45.61;99486.72;5073288;28;20556;-61
2023/12/31 10:32:41;;;;;;;1.55;0.47;;;;;;;17.10;46.04;99480.69;5055244;28;20037;-60
2023/12/31 10:35:08;;;;;;;1.35;0.43;;;;;;;17.06;44.95;99474.84;5056779;28;20029;-63
2023/12/31 10:37:36;;;;;;;0.40;0.30;;;;;;;17.06;45.32;99472.13;5072825;28;20037;-61
2023/12/31 10:40:20;;;;;;;2.78;0.70;;;;;;;17.09;46.17;99468.19;5074387;28;20039;-60
2023/12/31 10:42:51;;;;;;;1.42;0.47;;;;;;;17.10;45.62;99464.47;5073003;28;20048;-60
2023/12/31 10:45:19;;;;;;;1.13;0.30;;;;;;;17.11;46.36;99458.03;5071710;28;20044;-60
2023/12/31 10:47:47;;;;;;;4.45;0.80;;;;;;;17.15;45.44;99461.97;5072905;28;20032;-61
2023/12/31 10:50:17;;;;;;;0.73;0.40;;;;;;;17.15;45.70;99472.78;5055233;28;20036;-61
2023/12/31 10:52:43;;;;;;;0.75;0.20;;;;;;;17.20;45.42;99464.88;5054880;28;20033;-60
2023/12/31 10:55:13;;;;;;;1.08;0.35;;;;;;;17.22;45.47;99468.25;5071614;28;20036;-60
2023/12/31 10:57:41;;;;;;;0.45;0.30;;;;;;;17.21;46.13;99450.31;5071685;28;20044;-61
2023/12/31 11:00:09;;;;;;;0.00;0.00;;;;;;;17.18;45.14;99472.38;5071549;28;20036;-61
2023/12/31 11:02:35;;;;;;;0.88;0.47;;;;;;;17.19;45.56;99468.66;5072742;28;20044;-60
2023/12/31 11:05:01;;;;;;;0.77;0.20;;;;;;;17.22;44.97;99457.41;5071132;28;20075;-61
2023/12/31 11:07:26;;;;;;;0.77;0.20;;;;;;;17.30;45.71;99468.88;5071263;28;20583;-61
2023/12/31 11:09:53;;;;;;;0.77;0.20;;;;;;;17.27;45.26;99476.56;5054568;28;20111;-60
2023/12/31 11:12:18;;;;;;;0.88;0.22;;;;;;;17.23;45.59;99475.31;5075391;28;20442;-61
2023/12/31 11:14:51;;;;;;;0.60;0.57;;;;;;;17.20;45.25;99459.47;5075452;28;20086;-60
2023/12/31 11:17:55;;;;;;;0.57;0.20;;;;;;;17.21;46.08;99466.56;5075677;28;20048;-60
2023/12/31 11:20:31;;;;;;;0.20;0.20;;;;;;;17.25;45.44;99475.94;5076296;28;20033;-61
2023/12/31 11:23:35;;;;;;;0.13;0.10;;;;;;;17.34;45.79;99480.09;5058603;28;20043;-60
2023/12/31 11:26:02;;;;;;;2.05;0.38;;;;;;;17.30;45.04;99477.00;5076393;28;20067;-62